sensor_id;sensor_type;location;lat;lon;timestamp;temperature;humidity
67279;DHT22;54193;53.746;10.058;2024-02-21T00:01:26;9.78;87.65
67279;DHT22;54193;53.746;10.058;2024-02-21T00:03:51;9.81;87.71
67279;DHT22;54193;53.746;10.058;2024-02-21T00:06:17;9.85;87.72
67279;DHT22;54193;53.746;10.058;2024-02-21T00:08:42;9.93;87.46
67279;DHT22;54193;53.746;10.058;2024-02-21T00:11:07;9.82;87.26
67279;DHT22;54193;53.746;10.058;2024-02-21T00:13:32;9.82;87.66
67279;DHT22;54193;53.746;10.058;2024-02-21T00:15:59;9.75;87.92
67279;DHT22;54193;53.746;10.058;2024-02-21T00:18:24;9.82;87.87
67279;DHT22;54193;53.746;10.058;2024-02-21T00:20:50;9.83;87.35
67279;DHT22;54193;53.746;10.058;2024-02-21T00:23:15;9.81;87.93
67279;DHT22;54193;53.746;10.058;2024-02-21T00:25:40;9.88;87.55
67279;DHT22;54193;53.746;10.058;2024-02-21T00:28:06;9.90;87.62
67279;DHT22;54193;53.746;10.058;2024-02-21T00:30:31;9.90;87.39
67279;DHT22;54193;53.746;10.058;2024-02-21T00:32:56;9.95;87.57
67279;DHT22;54193;53.746;10.058;2024-02-21T00:35:22;9.82;87.83
67279;DHT22;54193;53.746;10.058;2024-02-21T00:37:47;9.89;88.05
67279;DHT22;54193;53.746;10.058;2024-02-21T00:40:12;9.74;88.70
67279;DHT22;54193;53.746;10.058;2024-02-21T00:42:37;9.86;88.25
67279;DHT22;54193;53.746;10.058;2024-02-21T00:45:03;9.83;88.26
67279;DHT22;54193;53.746;10.058;2024-02-21T00:47:28;9.86;88.26
67279;DHT22;54193;53.746;10.058;2024-02-21T00:49:53;9.81;88.10
67279;DHT22;54193;53.746;10.058;2024-02-21T00:52:19;9.96;87.86
67279;DHT22;54193;53.746;10.058;2024-02-21T00:54:45;9.99;87.55
67279;DHT22;54193;53.746;10.058;2024-02-21T00:57:10;9.90;88.10
67279;DHT22;54193;53.746;10.058;2024-02-21T00:59:35;9.88;88.04
67279;DHT22;54193;53.746;10.058;2024-02-21T01:02:01;9.83;88.34
67279;DHT22;54193;53.746;10.058;2024-02-21T01:04:26;9.65;88.67
67279;DHT22;54193;53.746;10.058;2024-02-21T01:06:51;9.77;89.22
67279;DHT22;54193;53.746;10.058;2024-02-21T01:09:16;9.65;89.27
67279;DHT22;54193;53.746;10.058;2024-02-21T01:11:42;9.69;89.83
67279;DHT22;54193;53.746;10.058;2024-02-21T01:14:08;9.69;89.60
67279;DHT22;54193;53.746;10.058;2024-02-21T01:16:34;9.69;89.45
67279;DHT22;54193;53.746;10.058;2024-02-21T01:18:59;9.75;89.55
67279;DHT22;54193;53.746;10.058;2024-02-21T01:21:24;9.79;89.43
67279;DHT22;54193;53.746;10.058;2024-02-21T01:23:49;9.83;89.37
67279;DHT22;54193;53.746;10.058;2024-02-21T01:26:14;9.67;89.79
67279;DHT22;54193;53.746;10.058;2024-02-21T01:28:41;9.75;89.72
67279;DHT22;54193;53.746;10.058;2024-02-21T01:31:06;9.90;89.49
67279;DHT22;54193;53.746;10.058;2024-02-21T01:33:32;9.55;90.00
67279;DHT22;54193;53.746;10.058;2024-02-21T01:36:03;9.67;90.46
67279;DHT22;54193;53.746;10.058;2024-02-21T01:38:28;9.52;90.78
67279;DHT22;54193;53.746;10.058;2024-02-21T01:40:54;9.62;90.85
67279;DHT22;54193;53.746;10.058;2024-02-21T01:43:19;9.65;90.83
67279;DHT22;54193;53.746;10.058;2024-02-21T01:45:46;9.68;91.02
67279;DHT22;54193;53.746;10.058;2024-02-21T01:48:13;9.85;90.45
67279;DHT22;54193;53.746;10.058;2024-02-21T01:50:38;9.82;90.81
67279;DHT22;54193;53.746;10.058;2024-02-21T01:53:04;9.65;91.09
67279;DHT22;54193;53.746;10.058;2024-02-21T01:55:29;9.58;91.57
67279;DHT22;54193;53.746;10.058;2024-02-21T01:57:54;9.65;91.92
67279;DHT22;54193;53.746;10.058;2024-02-21T02:00:19;9.51;91.73
67279;DHT22;54193;53.746;10.058;2024-02-21T02:02:45;9.50;92.00
67279;DHT22;54193;53.746;10.058;2024-02-21T02:05:11;9.55;91.84
67279;DHT22;54193;53.746;10.058;2024-02-21T02:07:36;9.55;91.82
67279;DHT22;54193;53.746;10.058;2024-02-21T02:10:01;9.45;92.17
67279;DHT22;54193;53.746;10.058;2024-02-21T02:12:26;9.52;92.12
67279;DHT22;54193;53.746;10.058;2024-02-21T02:14:59;9.41;92.07
67279;DHT22;54193;53.746;10.058;2024-02-21T02:17:24;9.44;92.25
67279;DHT22;54193;53.746;10.058;2024-02-21T02:19:50;9.42;92.14
67279;DHT22;54193;53.746;10.058;2024-02-21T02:22:16;9.44;92.21
67279;DHT22;54193;53.746;10.058;2024-02-21T02:24:43;9.44;92.53
67279;DHT22;54193;53.746;10.058;2024-02-21T02:27:09;9.50;92.23
67279;DHT22;54193;53.746;10.058;2024-02-21T02:29:34;9.55;92.20
67279;DHT22;54193;53.746;10.058;2024-02-21T02:31:59;9.48;92.21
67279;DHT22;54193;53.746;10.058;2024-02-21T02:34:25;9.52;91.99
67279;DHT22;54193;53.746;10.058;2024-02-21T02:36:50;9.48;92.05
67279;DHT22;54193;53.746;10.058;2024-02-21T02:39:15;9.50;92.03
67279;DHT22;54193;53.746;10.058;2024-02-21T02:41:40;9.47;92.07
67279;DHT22;54193;53.746;10.058;2024-02-21T02:44:06;9.50;91.97
67279;DHT22;54193;53.746;10.058;2024-02-21T02:46:31;9.51;92.08
67279;DHT22;54193;53.746;10.058;2024-02-21T02:48:56;9.51;92.03
67279;DHT22;54193;53.746;10.058;2024-02-21T02:51:21;9.50;92.04
67279;DHT22;54193;53.746;10.058;2024-02-21T02:53:46;9.51;91.94
67279;DHT22;54193;53.746;10.058;2024-02-21T02:56:15;9.57;91.83
67279;DHT22;54193;53.746;10.058;2024-02-21T02:58:41;9.59;91.87
67279;DHT22;54193;53.746;10.058;2024-02-21T03:01:08;9.57;91.79
67279;DHT22;54193;53.746;10.058;2024-02-21T03:03:33;9.55;91.78
67279;DHT22;54193;53.746;10.058;2024-02-21T03:05:58;9.52;91.62
67279;DHT22;54193;53.746;10.058;2024-02-21T03:08:24;9.55;91.85
67279;DHT22;54193;53.746;10.058;2024-02-21T03:10:49;9.57;91.57
67279;DHT22;54193;53.746;10.058;2024-02-21T03:13:14;9.57;91.34
67279;DHT22;54193;53.746;10.058;2024-02-21T03:15:39;9.58;91.62
67279;DHT22;54193;53.746;10.058;2024-02-21T03:18:05;9.67;91.54
67279;DHT22;54193;53.746;10.058;2024-02-21T03:20:30;9.59;91.49
67279;DHT22;54193;53.746;10.058;2024-02-21T03:22:56;9.62;91.32
67279;DHT22;54193;53.746;10.058;2024-02-21T03:25:21;9.68;91.11
67279;DHT22;54193;53.746;10.058;2024-02-21T03:27:46;9.67;90.85
67279;DHT22;54193;53.746;10.058;2024-02-21T03:30:12;9.72;91.02
67279;DHT22;54193;53.746;10.058;2024-02-21T03:32:38;9.75;90.91
67279;DHT22;54193;53.746;10.058;2024-02-21T03:35:04;9.71;91.09
67279;DHT22;54193;53.746;10.058;2024-02-21T03:37:29;9.68;91.26
67279;DHT22;54193;53.746;10.058;2024-02-21T03:39:55;9.74;91.46
67279;DHT22;54193;53.746;10.058;2024-02-21T03:42:20;9.65;91.62
67279;DHT22;54193;53.746;10.058;2024-02-21T03:44:45;9.62;91.54
67279;DHT22;54193;53.746;10.058;2024-02-21T03:47:11;9.61;91.77
67279;DHT22;54193;53.746;10.058;2024-02-21T03:49:36;9.65;92.09
67279;DHT22;54193;53.746;10.058;2024-02-21T03:52:02;9.62;91.84
67279;DHT22;54193;53.746;10.058;2024-02-21T03:54:27;9.68;91.61
67279;DHT22;54193;53.746;10.058;2024-02-21T03:56:52;9.74;91.54
67279;DHT22;54193;53.746;10.058;2024-02-21T03:59:18;9.68;91.60
67279;DHT22;54193;53.746;10.058;2024-02-21T04:01:43;9.67;91.69
67279;DHT22;54193;53.746;10.058;2024-02-21T04:04:09;9.65;91.65
67279;DHT22;54193;53.746;10.058;2024-02-21T04:06:34;9.61;91.75
67279;DHT22;54193;53.746;10.058;2024-02-21T04:08:59;9.68;91.63
67279;DHT22;54193;53.746;10.058;2024-02-21T04:11:25;9.74;91.48
67279;DHT22;54193;53.746;10.058;2024-02-21T04:13:50;9.61;91.75
67279;DHT22;54193;53.746;10.058;2024-02-21T04:16:16;9.63;91.88
67279;DHT22;54193;53.746;10.058;2024-02-21T04:18:42;9.67;91.60
67279;DHT22;54193;53.746;10.058;2024-02-21T04:21:08;9.71;91.64
67279;DHT22;54193;53.746;10.058;2024-02-21T04:23:33;9.68;91.93
67279;DHT22;54193;53.746;10.058;2024-02-21T04:25:58;9.67;91.83
67279;DHT22;54193;53.746;10.058;2024-02-21T04:28:23;9.65;91.94
67279;DHT22;54193;53.746;10.058;2024-02-21T04:30:49;9.62;92.10
67279;DHT22;54193;53.746;10.058;2024-02-21T04:33:14;9.59;92.00
67279;DHT22;54193;53.746;10.058;2024-02-21T04:35:39;9.61;91.96
67279;DHT22;54193;53.746;10.058;2024-02-21T04:38:05;9.69;92.03
67279;DHT22;54193;53.746;10.058;2024-02-21T04:40:30;9.58;92.16
67279;DHT22;54193;53.746;10.058;2024-02-21T04:42:56;9.67;92.02
67279;DHT22;54193;53.746;10.058;2024-02-21T04:45:21;9.61;92.28
67279;DHT22;54193;53.746;10.058;2024-02-21T04:47:46;9.61;92.39
67279;DHT22;54193;53.746;10.058;2024-02-21T04:50:12;9.61;92.35
67279;DHT22;54193;53.746;10.058;2024-02-21T04:52:37;9.63;92.43
67279;DHT22;54193;53.746;10.058;2024-02-21T04:55:03;9.68;92.31
67279;DHT22;54193;53.746;10.058;2024-02-21T04:57:28;9.48;92.55
67279;DHT22;54193;53.746;10.058;2024-02-21T04:59:53;9.67;92.43
67279;DHT22;54193;53.746;10.058;2024-02-21T05:02:19;9.59;92.49
67279;DHT22;54193;53.746;10.058;2024-02-21T05:04:47;9.61;92.57
67279;DHT22;54193;53.746;10.058;2024-02-21T05:07:12;9.51;92.39
67279;DHT22;54193;53.746;10.058;2024-02-21T05:09:38;9.61;92.58
67279;DHT22;54193;53.746;10.058;2024-02-21T05:12:03;9.62;92.53
67279;DHT22;54193;53.746;10.058;2024-02-21T05:14:28;9.63;92.35
67279;DHT22;54193;53.746;10.058;2024-02-21T05:16:54;9.67;92.38
67279;DHT22;54193;53.746;10.058;2024-02-21T05:19:19;9.72;92.37
67279;DHT22;54193;53.746;10.058;2024-02-21T05:21:44;9.63;92.65
67279;DHT22;54193;53.746;10.058;2024-02-21T05:24:10;9.71;92.37
67279;DHT22;54193;53.746;10.058;2024-02-21T05:26:35;9.58;92.49
67279;DHT22;54193;53.746;10.058;2024-02-21T05:29:00;9.71;92.30
67279;DHT22;54193;53.746;10.058;2024-02-21T05:31:25;9.75;92.23
67279;DHT22;54193;53.746;10.058;2024-02-21T05:33:51;9.55;92.47
67279;DHT22;54193;53.746;10.058;2024-02-21T05:36:16;9.62;92.30
67279;DHT22;54193;53.746;10.058;2024-02-21T05:38:42;9.71;92.59
67279;DHT22;54193;53.746;10.058;2024-02-21T05:41:07;9.69;92.58
67279;DHT22;54193;53.746;10.058;2024-02-21T05:43:32;9.72;92.21
67279;DHT22;54193;53.746;10.058;2024-02-21T05:45:58;9.63;92.45
67279;DHT22;54193;53.746;10.058;2024-02-21T05:48:23;9.68;92.52
67279;DHT22;54193;53.746;10.058;2024-02-21T05:50:48;9.71;92.37
67279;DHT22;54193;53.746;10.058;2024-02-21T05:53:14;9.72;92.19
67279;DHT22;54193;53.746;10.058;2024-02-21T05:55:39;9.72;92.32
67279;DHT22;54193;53.746;10.058;2024-02-21T05:58:05;9.83;92.17
67279;DHT22;54193;53.746;10.058;2024-02-21T06:00:31;9.81;92.38
67279;DHT22;54193;53.746;10.058;2024-02-21T06:02:56;9.93;92.22
67279;DHT22;54193;53.746;10.058;2024-02-21T06:05:21;9.78;92.15
67279;DHT22;54193;53.746;10.058;2024-02-21T06:07:46;9.79;92.28
67279;DHT22;54193;53.746;10.058;2024-02-21T06:10:12;9.71;92.34
67279;DHT22;54193;53.746;10.058;2024-02-21T06:12:37;9.67;92.55
67279;DHT22;54193;53.746;10.058;2024-02-21T06:15:03;9.55;92.78
67279;DHT22;54193;53.746;10.058;2024-02-21T06:17:28;9.59;92.15
67279;DHT22;54193;53.746;10.058;2024-02-21T06:19:53;9.62;92.09
67279;DHT22;54193;53.746;10.058;2024-02-21T06:22:19;9.65;91.92
67279;DHT22;54193;53.746;10.058;2024-02-21T06:24:44;9.52;91.74
67279;DHT22;54193;53.746;10.058;2024-02-21T06:27:09;9.54;91.82
67279;DHT22;54193;53.746;10.058;2024-02-21T06:29:36;9.54;91.92
67279;DHT22;54193;53.746;10.058;2024-02-21T06:32:02;9.52;91.95
67279;DHT22;54193;53.746;10.058;2024-02-21T06:34:27;9.57;91.80
67279;DHT22;54193;53.746;10.058;2024-02-21T06:36:52;9.57;91.46
67279;DHT22;54193;53.746;10.058;2024-02-21T06:39:17;9.54;92.06
67279;DHT22;54193;53.746;10.058;2024-02-21T06:41:43;9.57;92.07
67279;DHT22;54193;53.746;10.058;2024-02-21T06:44:08;9.57;92.00
67279;DHT22;54193;53.746;10.058;2024-02-21T06:46:33;9.62;92.02
67279;DHT22;54193;53.746;10.058;2024-02-21T06:48:59;9.63;92.24
67279;DHT22;54193;53.746;10.058;2024-02-21T06:51:25;9.61;92.13
67279;DHT22;54193;53.746;10.058;2024-02-21T06:53:50;9.71;92.19
67279;DHT22;54193;53.746;10.058;2024-02-21T06:56:15;9.72;92.10
67279;DHT22;54193;53.746;10.058;2024-02-21T06:58:41;9.71;92.21
67279;DHT22;54193;53.746;10.058;2024-02-21T07:01:06;9.67;92.23
67279;DHT22;54193;53.746;10.058;2024-02-21T07:03:32;9.65;92.45
67279;DHT22;54193;53.746;10.058;2024-02-21T07:05:57;9.65;92.20
67279;DHT22;54193;53.746;10.058;2024-02-21T07:08:22;9.78;92.08
67279;DHT22;54193;53.746;10.058;2024-02-21T07:10:47;9.78;92.00
67279;DHT22;54193;53.746;10.058;2024-02-21T07:13:13;9.75;92.11
67279;DHT22;54193;53.746;10.058;2024-02-21T07:15:39;9.67;92.02
67279;DHT22;54193;53.746;10.058;2024-02-21T07:18:04;9.63;91.88
67279;DHT22;54193;53.746;10.058;2024-02-21T07:20:30;9.58;92.05
67279;DHT22;54193;53.746;10.058;2024-02-21T07:22:55;9.44;92.18
67279;DHT22;54193;53.746;10.058;2024-02-21T07:25:20;9.50;92.17
67279;DHT22;54193;53.746;10.058;2024-02-21T07:27:46;9.45;92.01
67279;DHT22;54193;53.746;10.058;2024-02-21T07:30:12;9.55;92.05
67279;DHT22;54193;53.746;10.058;2024-02-21T07:32:38;9.55;92.06
67279;DHT22;54193;53.746;10.058;2024-02-21T07:35:03;9.58;91.99
67279;DHT22;54193;53.746;10.058;2024-02-21T07:37:28;9.62;91.96
67279;DHT22;54193;53.746;10.058;2024-02-21T07:39:54;9.65;91.80
67279;DHT22;54193;53.746;10.058;2024-02-21T07:42:19;9.67;92.06
67279;DHT22;54193;53.746;10.058;2024-02-21T07:44:45;9.68;91.87
67279;DHT22;54193;53.746;10.058;2024-02-21T07:47:10;9.65;92.03
67279;DHT22;54193;53.746;10.058;2024-02-21T07:49:43;9.67;91.98
67279;DHT22;54193;53.746;10.058;2024-02-21T07:52:09;9.69;91.69
67279;DHT22;54193;53.746;10.058;2024-02-21T07:54:35;9.61;91.85
67279;DHT22;54193;53.746;10.058;2024-02-21T07:57:00;9.47;91.48
67279;DHT22;54193;53.746;10.058;2024-02-21T07:59:25;9.61;91.48
67279;DHT22;54193;53.746;10.058;2024-02-21T08:01:50;9.61;91.28
67279;DHT22;54193;53.746;10.058;2024-02-21T08:04:15;9.75;91.31
67279;DHT22;54193;53.746;10.058;2024-02-21T08:06:41;9.74;91.31
67279;DHT22;54193;53.746;10.058;2024-02-21T08:09:06;9.81;91.21
67279;DHT22;54193;53.746;10.058;2024-02-21T08:11:31;9.85;91.18
67279;DHT22;54193;53.746;10.058;2024-02-21T08:13:57;9.83;91.13
67279;DHT22;54193;53.746;10.058;2024-02-21T08:16:24;9.82;91.11
67279;DHT22;54193;53.746;10.058;2024-02-21T08:18:59;10.00;90.96
67279;DHT22;54193;53.746;10.058;2024-02-21T08:21:26;9.86;91.19
67279;DHT22;54193;53.746;10.058;2024-02-21T08:23:52;9.78;90.60
67279;DHT22;54193;53.746;10.058;2024-02-21T08:26:19;9.89;90.98
67279;DHT22;54193;53.746;10.058;2024-02-21T08:28:44;9.82;90.60
67279;DHT22;54193;53.746;10.058;2024-02-21T08:31:09;9.79;90.26
67279;DHT22;54193;53.746;10.058;2024-02-21T08:33:35;9.96;90.46
67279;DHT22;54193;53.746;10.058;2024-02-21T08:36:00;9.98;89.94
67279;DHT22;54193;53.746;10.058;2024-02-21T08:38:25;9.90;89.52
67279;DHT22;54193;53.746;10.058;2024-02-21T08:40:50;10.10;89.25
67279;DHT22;54193;53.746;10.058;2024-02-21T08:43:15;10.17;89.67
67279;DHT22;54193;53.746;10.058;2024-02-21T08:45:41;9.93;88.71
67279;DHT22;54193;53.746;10.058;2024-02-21T08:48:06;9.83;88.87
67279;DHT22;54193;53.746;10.058;2024-02-21T08:50:31;9.93;87.28
67279;DHT22;54193;53.746;10.058;2024-02-21T08:52:57;9.99;87.99
67279;DHT22;54193;53.746;10.058;2024-02-21T08:55:22;10.12;87.96
67279;DHT22;54193;53.746;10.058;2024-02-21T08:57:49;10.30;87.70
67279;DHT22;54193;53.746;10.058;2024-02-21T09:00:14;10.17;86.98
67279;DHT22;54193;53.746;10.058;2024-02-21T09:02:40;10.12;86.82
67279;DHT22;54193;53.746;10.058;2024-02-21T09:05:05;10.21;87.12
67279;DHT22;54193;53.746;10.058;2024-02-21T09:07:31;10.23;86.79
67279;DHT22;54193;53.746;10.058;2024-02-21T09:09:56;10.18;86.74
67279;DHT22;54193;53.746;10.058;2024-02-21T09:12:21;10.17;87.02
67279;DHT22;54193;53.746;10.058;2024-02-21T09:14:47;10.34;86.93
67279;DHT22;54193;53.746;10.058;2024-02-21T09:17:15;10.38;86.62
67279;DHT22;54193;53.746;10.058;2024-02-21T09:19:42;10.57;86.79
67279;DHT22;54193;53.746;10.058;2024-02-21T09:22:07;10.75;86.36
67279;DHT22;54193;53.746;10.058;2024-02-21T09:24:32;10.47;85.94
67279;DHT22;54193;53.746;10.058;2024-02-21T09:26:58;10.54;85.90
67279;DHT22;54193;53.746;10.058;2024-02-21T09:29:23;10.78;86.29
67279;DHT22;54193;53.746;10.058;2024-02-21T09:31:48;10.91;85.81
67279;DHT22;54193;53.746;10.058;2024-02-21T09:34:13;10.89;85.75
67279;DHT22;54193;53.746;10.058;2024-02-21T09:36:39;11.00;85.11
67279;DHT22;54193;53.746;10.058;2024-02-21T09:39:05;11.06;85.30
67279;DHT22;54193;53.746;10.058;2024-02-21T09:41:30;10.85;84.93
67279;DHT22;54193;53.746;10.058;2024-02-21T09:43:56;11.02;85.23
67279;DHT22;54193;53.746;10.058;2024-02-21T09:51:43;10.96;85.19
67279;DHT22;54193;53.746;10.058;2024-02-21T09:54:08;10.91;85.14
67279;DHT22;54193;53.746;10.058;2024-02-21T09:56:34;10.83;85.68
67279;DHT22;54193;53.746;10.058;2024-02-21T09:58:59;10.85;85.82
67279;DHT22;54193;53.746;10.058;2024-02-21T10:01:24;10.76;86.09
67279;DHT22;54193;53.746;10.058;2024-02-21T10:03:49;10.85;86.40
67279;DHT22;54193;53.746;10.058;2024-02-21T10:06:15;10.88;86.71
67279;DHT22;54193;53.746;10.058;2024-02-21T10:08:40;10.93;86.03
67279;DHT22;54193;53.746;10.058;2024-02-21T10:11:05;10.83;86.95
67279;DHT22;54193;53.746;10.058;2024-02-21T10:13:31;10.83;86.80
67279;DHT22;54193;53.746;10.058;2024-02-21T10:16:03;10.88;86.83
67279;DHT22;54193;53.746;10.058;2024-02-21T10:18:28;10.81;86.94
67279;DHT22;54193;53.746;10.058;2024-02-21T10:21:26;10.81;87.15
67279;DHT22;54193;53.746;10.058;2024-02-21T10:23:45;10.82;87.52
67279;DHT22;54193;53.746;10.058;2024-02-21T10:26:11;10.65;88.35
67279;DHT22;54193;53.746;10.058;2024-02-21T10:28:37;10.68;88.37
67279;DHT22;54193;53.746;10.058;2024-02-21T10:31:06;10.79;88.28
67279;DHT22;54193;53.746;10.058;2024-02-21T10:33:32;10.68;88.81
67279;DHT22;54193;53.746;10.058;2024-02-21T10:36:05;10.74;88.57
67279;DHT22;54193;53.746;10.058;2024-02-21T10:38:31;10.74;88.87
67279;DHT22;54193;53.746;10.058;2024-02-21T10:40:58;10.69;89.18
67279;DHT22;54193;53.746;10.058;2024-02-21T10:43:24;10.72;88.86
67279;DHT22;54193;53.746;10.058;2024-02-21T10:45:50;10.76;89.10
67279;DHT22;54193;53.746;10.058;2024-02-21T10:48:18;10.72;89.39
67279;DHT22;54193;53.746;10.058;2024-02-21T10:50:53;10.68;89.80
67279;DHT22;54193;53.746;10.058;2024-02-21T10:53:29;10.69;89.71
67279;DHT22;54193;53.746;10.058;2024-02-21T10:56:08;10.60;89.73
67279;DHT22;54193;53.746;10.058;2024-02-21T10:58:36;10.44;90.10
67279;DHT22;54193;53.746;10.058;2024-02-21T11:01:02;10.62;90.40
67279;DHT22;54193;53.746;10.058;2024-02-21T11:03:28;10.53;90.46
67279;DHT22;54193;53.746;10.058;2024-02-21T11:05:54;10.68;90.41
67279;DHT22;54193;53.746;10.058;2024-02-21T11:08:19;10.44;90.62
67279;DHT22;54193;53.746;10.058;2024-02-21T11:10:45;10.57;90.71
67279;DHT22;54193;53.746;10.058;2024-02-21T11:13:11;10.75;90.55
67279;DHT22;54193;53.746;10.058;2024-02-21T11:15:36;10.62;90.72
67279;DHT22;54193;53.746;10.058;2024-02-21T11:18:01;10.78;90.47
67279;DHT22;54193;53.746;10.058;2024-02-21T11:20:36;10.69;90.55
67279;DHT22;54193;53.746;10.058;2024-02-21T11:23:02;10.57;90.44
67279;DHT22;54193;53.746;10.058;2024-02-21T11:25:27;10.48;90.57
67279;DHT22;54193;53.746;10.058;2024-02-21T11:28:00;10.55;90.60
67279;DHT22;54193;53.746;10.058;2024-02-21T11:30:26;10.48;90.92
67279;DHT22;54193;53.746;10.058;2024-02-21T11:32:58;10.55;90.88
67279;DHT22;54193;53.746;10.058;2024-02-21T11:35:24;10.47;90.79
67279;DHT22;54193;53.746;10.058;2024-02-21T11:37:49;10.44;90.95
67279;DHT22;54193;53.746;10.058;2024-02-21T11:40:14;10.43;90.85
67279;DHT22;54193;53.746;10.058;2024-02-21T11:42:40;10.48;90.95
67279;DHT22;54193;53.746;10.058;2024-02-21T11:45:06;10.47;91.01
67279;DHT22;54193;53.746;10.058;2024-02-21T11:47:31;10.41;91.25
67279;DHT22;54193;53.746;10.058;2024-02-21T11:49:56;10.47;90.97
67279;DHT22;54193;53.746;10.058;2024-02-21T11:52:22;10.40;91.08
67279;DHT22;54193;53.746;10.058;2024-02-21T11:54:50;10.40;90.89
67279;DHT22;54193;53.746;10.058;2024-02-21T11:57:15;10.40;91.21
67279;DHT22;54193;53.746;10.058;2024-02-21T11:59:41;10.32;91.06
67279;DHT22;54193;53.746;10.058;2024-02-21T12:02:06;10.30;90.85
67279;DHT22;54193;53.746;10.058;2024-02-21T12:04:32;10.33;90.99
67279;DHT22;54193;53.746;10.058;2024-02-21T12:06:57;10.38;90.97
67279;DHT22;54193;53.746;10.058;2024-02-21T12:09:23;10.37;90.82
67279;DHT22;54193;53.746;10.058;2024-02-21T12:14:24;10.26;90.78
67279;DHT22;54193;53.746;10.058;2024-02-21T12:16:50;10.17;90.95
67279;DHT22;54193;53.746;10.058;2024-02-21T12:19:15;10.16;90.95
67279;DHT22;54193;53.746;10.058;2024-02-21T12:21:42;10.03;90.80
67279;DHT22;54193;53.746;10.058;2024-02-21T12:24:14;10.06;90.62
67279;DHT22;54193;53.746;10.058;2024-02-21T12:26:41;10.00;90.69
67279;DHT22;54193;53.746;10.058;2024-02-21T12:29:06;10.12;90.53
67279;DHT22;54193;53.746;10.058;2024-02-21T12:31:34;10.02;90.57
67279;DHT22;54193;53.746;10.058;2024-02-21T12:34:00;10.10;90.64
67279;DHT22;54193;53.746;10.058;2024-02-21T12:36:25;10.07;90.51
67279;DHT22;54193;53.746;10.058;2024-02-21T12:38:51;10.20;90.61
67279;DHT22;54193;53.746;10.058;2024-02-21T12:41:16;10.27;90.30
67279;DHT22;54193;53.746;10.058;2024-02-21T12:43:42;10.18;90.28
67279;DHT22;54193;53.746;10.058;2024-02-21T12:46:07;10.16;90.23
67279;DHT22;54193;53.746;10.058;2024-02-21T12:48:33;10.32;89.85
67279;DHT22;54193;53.746;10.058;2024-02-21T12:50:58;10.38;90.05
67279;DHT22;54193;53.746;10.058;2024-02-21T12:53:23;10.17;89.94
67279;DHT22;54193;53.746;10.058;2024-02-21T12:55:49;10.23;90.05
67279;DHT22;54193;53.746;10.058;2024-02-21T12:58:14;10.30;89.82
67279;DHT22;54193;53.746;10.058;2024-02-21T13:00:40;10.32;89.73
67279;DHT22;54193;53.746;10.058;2024-02-21T13:03:05;10.34;89.95
67279;DHT22;54193;53.746;10.058;2024-02-21T13:05:30;10.40;90.07
67279;DHT22;54193;53.746;10.058;2024-02-21T13:07:57;10.20;89.97
67279;DHT22;54193;53.746;10.058;2024-02-21T13:10:22;10.34;90.15
67279;DHT22;54193;53.746;10.058;2024-02-21T13:12:47;10.07;90.24
67279;DHT22;54193;53.746;10.058;2024-02-21T13:15:13;10.17;90.20
67279;DHT22;54193;53.746;10.058;2024-02-21T13:17:38;10.13;90.23
67279;DHT22;54193;53.746;10.058;2024-02-21T13:20:04;10.10;90.27
67279;DHT22;54193;53.746;10.058;2024-02-21T13:22:30;10.13;90.24
67279;DHT22;54193;53.746;10.058;2024-02-21T13:24:56;10.14;90.15
67279;DHT22;54193;53.746;10.058;2024-02-21T13:27:21;10.10;89.83
67279;DHT22;54193;53.746;10.058;2024-02-21T13:29:46;10.06;89.97
67279;DHT22;54193;53.746;10.058;2024-02-21T13:32:11;10.05;90.05
67279;DHT22;54193;53.746;10.058;2024-02-21T13:34:37;10.10;90.12
67279;DHT22;54193;53.746;10.058;2024-02-21T13:37:02;10.21;89.60
67279;DHT22;54193;53.746;10.058;2024-02-21T13:39:29;10.26;89.92
67279;DHT22;54193;53.746;10.058;2024-02-21T13:41:54;10.34;89.55
67279;DHT22;54193;53.746;10.058;2024-02-21T13:44:20;10.29;89.53
67279;DHT22;54193;53.746;10.058;2024-02-21T13:46:45;10.29;89.14
67279;DHT22;54193;53.746;10.058;2024-02-21T13:49:11;10.30;89.59
67279;DHT22;54193;53.746;10.058;2024-02-21T13:51:36;10.41;89.12
67279;DHT22;54193;53.746;10.058;2024-02-21T13:54:02;10.37;88.63
67279;DHT22;54193;53.746;10.058;2024-02-21T13:56:28;10.51;88.59
67279;DHT22;54193;53.746;10.058;2024-02-21T13:58:54;10.62;88.32
67279;DHT22;54193;53.746;10.058;2024-02-21T14:01:19;10.57;88.15
67279;DHT22;54193;53.746;10.058;2024-02-21T14:03:44;10.62;87.60
67279;DHT22;54193;53.746;10.058;2024-02-21T14:06:10;10.64;87.70
67279;DHT22;54193;53.746;10.058;2024-02-21T14:08:35;10.62;87.21
67279;DHT22;54193;53.746;10.058;2024-02-21T14:11:02;10.72;87.09
67279;DHT22;54193;53.746;10.058;2024-02-21T14:13:27;10.86;87.10
67279;DHT22;54193;53.746;10.058;2024-02-21T14:15:53;10.74;86.68
67279;DHT22;54193;53.746;10.058;2024-02-21T14:18:18;10.76;87.05
67279;DHT22;54193;53.746;10.058;2024-02-21T14:20:43;10.62;86.99
67279;DHT22;54193;53.746;10.058;2024-02-21T14:23:09;10.67;86.88
67279;DHT22;54193;53.746;10.058;2024-02-21T14:25:34;10.68;87.01
67279;DHT22;54193;53.746;10.058;2024-02-21T14:27:59;10.64;87.20
67279;DHT22;54193;53.746;10.058;2024-02-21T14:30:27;10.51;87.07
67279;DHT22;54193;53.746;10.058;2024-02-21T14:32:53;10.65;87.36
67279;DHT22;54193;53.746;10.058;2024-02-21T14:35:18;10.60;86.76
67279;DHT22;54193;53.746;10.058;2024-02-21T14:37:44;10.51;86.73
67279;DHT22;54193;53.746;10.058;2024-02-21T14:40:10;10.64;86.95
67279;DHT22;54193;53.746;10.058;2024-02-21T14:42:36;10.51;87.02
67279;DHT22;54193;53.746;10.058;2024-02-21T14:45:01;10.45;86.86
67279;DHT22;54193;53.746;10.058;2024-02-21T14:47:30;10.47;86.98
67279;DHT22;54193;53.746;10.058;2024-02-21T14:49:55;10.43;87.49
67279;DHT22;54193;53.746;10.058;2024-02-21T14:52:20;10.50;87.12
67279;DHT22;54193;53.746;10.058;2024-02-21T14:54:46;10.47;86.97
67279;DHT22;54193;53.746;10.058;2024-02-21T14:57:16;10.60;87.13
67279;DHT22;54193;53.746;10.058;2024-02-21T14:59:42;10.45;87.22
67279;DHT22;54193;53.746;10.058;2024-02-21T15:02:07;10.50;86.85
67279;DHT22;54193;53.746;10.058;2024-02-21T15:04:34;10.41;86.73
67279;DHT22;54193;53.746;10.058;2024-02-21T15:06:59;10.43;86.50
67279;DHT22;54193;53.746;10.058;2024-02-21T15:09:25;10.53;86.49
67279;DHT22;54193;53.746;10.058;2024-02-21T15:11:50;10.54;86.41
67279;DHT22;54193;53.746;10.058;2024-02-21T15:14:15;10.44;86.45
67279;DHT22;54193;53.746;10.058;2024-02-21T15:16:41;10.48;85.59
67279;DHT22;54193;53.746;10.058;2024-02-21T15:19:06;10.48;86.11
67279;DHT22;54193;53.746;10.058;2024-02-21T15:21:31;10.41;85.67
67279;DHT22;54193;53.746;10.058;2024-02-21T15:23:57;10.36;85.66